San Francisco International Airport
KSFO : now visible

Airfield :











YOU CAN JOIN US ON...

 
LOGIN :

Register | Disclaimer

   EN    FR    IT 

 









Legend :    VFR   Marginal VFR   IFR   Intensive IFR   Very Intensive IFR
Visi :
Ceiling :
>= 8 km
>= 3000ft
5 to 8 km
1000 to 3000 ft
1500m to 5 km
500 to 1000 ft
800 to 1500m
200 to 500 ft
< 800m
< 200 ft
Symbols :   Thunderstorms  Fog  Heavy snow  Heavy precipitations  Wind > 20 kt







- Airport Elevation : 13 ft
- IATA code : SFO


KSFO - San Francisco International

CURRENT METAR :
  • 261356Z 26015G21KT 9SM FEW022 BKN050 BKN200 11/07 A2979 RMK AO2 SLP089 T01110067

EXPIRED METARs :
  • 261256Z 26017KT 9SM FEW023 BKN034 BKN049 12/08 A2978 RMK AO2 PK WND 27026/1220 RAB41E53 SLP085 P0000 T01220078
  • 261156Z 28018G27KT 9SM SCT018 BKN050 OVC095 12/07 A2978 RMK AO2 PK WND 27031/1127 SLP085 60000 T01170072 10133 20117 58003

TAF KSFO
Valid from the 26 at 12:00 until the 27 at 18:00 UTC


261140Z 2612/2718 26025G34KT P6SM -SHRA BKN025 OVC050
FM261800 28022G28KT P6SM -SHRA BKN025 OVC035
FM262100 26018KT P6SM -SHRA BKN035
FM270000 26013KT P6SM VCSH BKN035
FM270900 26007KT P6SM BKN025
FM271200 26010KT P6SM SCT015 BKN025
KZOA FIR / North America



MET'MAP, your aeronautical weather chart ! - Copyright ORBIFLY December 2007 - Disclaimer

ORBIFLY MET'MAP TEAM :

Programming & Development : Alexandra Zaïnal
Concept & Development : Baudouin d'Aumeries
Co-Development & Prog : Marc-Olivier Méhu
Technical & hardware support : Manuel Goepfert

Contact : metmap@orbifly.com




SOURCES & CREDITS :

   NOAA       Earth
Advisory